Terminal Aerodrome Forecast
Issued by NWS

Home | Current Version | Previous Version | Text Only | Print | Product List | Glossary On
Versions: 1 2 3 4 5 6 7 8 9 10 11 12 13 14 15 16 17 18 19 20 21 22 23 24 25 26 27 28
000
FTUS43 KDLH 291600 AAE
TAFBRD
TAF AMD
KBRD 291611Z 2916/3012 08005KT 4SM -RA BR SCT007 BKN045 OVC070
      TEMPO 2916/2917 2SM RA BKN005
     FM291900 18003KT 6SM -RA BR SCT008 OVC015
     FM292200 VRB04KT P6SM VCSH OVC015
     FM300600 VRB03KT 5SM BR OVC010
      TEMPO 3008/3012 3/4SM BR OVC004=

USA.gov is the U.S. government's official web portal to all federal, state and local government web resources and services.